Terminal Aerodrome Forecast
Issued by NWS Bismarck, ND

Home | Current Version | Previous Version | Graphics & Text | Print | Product List | Glossary On
Versions: 1 2 3 4 5 6 7 8 9 10 11 12 13 14 15 16 17 18 19 20 21
000
FTUS43 KBIS 081738
TAFBIS
TAF
KBIS 081738Z 0818/0918 30011KT P6SM SCT200
     FM082000 31015G23KT P6SM SCT140 BKN180
     FM090100 31009KT P6SM BKN170
     FM091100 30004KT P6SM SCT250=

USA.gov is the U.S. government's official web portal to all federal, state and local government web resources and services.